»·PEaware :: SWA638 KLAS-KSMF

SWA638 :: KLAS-KSMF

FLIGHT INFORMATION

Flight Status: Arrived
Operator:
Southwest Airlines
More flights by this operator :: More flights under this callsign
Pilot: Justin R. (12299)
Aircraft: BOEING 737-800
(B738)
More flights by this aircraft type
Origin: KLAS McCarran Intl
United States
Destination: KSMF Sacramento Intl
United States
More flights between these airports :: More routes between these airports
Route: +SHEAD1 KENNO DONNR SLMMR3
File this flight plan on PilotEdge
Remarks:
Altitude:
(Current/Filed)
34,000ft
Speed:
(Current/Filed)
300kts
Departed: 13-Apr-18 07:31 PM
Arrived: 13-Apr-18 08:52 PM
Distance/Time
Traveled:
345nm/1:21
Distance/Time
To Go:
Arrived

Flight Plot

Page will automatically refresh every two minutes.

Flight plan parsing failed; only flown route is shown


Map Options




Map Legend


Flown Route
Filed Route
Departure Airport
Arrival Airport
Navaid (VOR, NDB)
Fix

Horizontal Profiles

Position Reports

Time Latitude Longitude Heading Altitude Ground
Speed
13-Apr-18 19:07 36.079552 -115.146690 29 2149ft 0kts
13-Apr-18 19:08 36.079552 -115.146690 29 2149ft 0kts
13-Apr-18 19:09 36.079552 -115.146690 29 2149ft 0kts
13-Apr-18 19:10 36.079552 -115.146690 29 2149ft 0kts
13-Apr-18 19:11 36.079552 -115.146690 29 2149ft 0kts
13-Apr-18 19:12 36.079552 -115.146690 29 2149ft 0kts
13-Apr-18 19:13 36.079552 -115.146690 29 2149ft 0kts
13-Apr-18 19:14 36.079552 -115.146690 29 2149ft 0kts
13-Apr-18 19:15 36.079552 -115.146690 29 2149ft 0kts
13-Apr-18 19:16 36.079552 -115.146690 29 2149ft 0kts
13-Apr-18 19:17 36.079552 -115.146690 29 2149ft 0kts
13-Apr-18 19:18 36.079552 -115.146690 29 2149ft 0kts
13-Apr-18 19:19 36.079220 -115.146793 352 2149ft 5kts
13-Apr-18 19:20 36.079024 -115.146842 283 2149ft 0kts
13-Apr-18 19:21 36.079030 -115.146873 283 2149ft 0kts
13-Apr-18 19:22 36.078415 -115.147380 159 2149ft 10kts
13-Apr-18 19:23 36.077562 -115.139830 85 2149ft 32kts
13-Apr-18 19:24 36.077590 -115.129355 92 2149ft 33kts
13-Apr-18 19:25 36.077534 -115.121675 121 2149ft 0kts
13-Apr-18 19:26 36.077534 -115.121675 121 2149ft 0kts
13-Apr-18 19:27 36.077534 -115.121675 121 2149ft 0kts
13-Apr-18 19:28 36.077534 -115.121675 121 2149ft 0kts
13-Apr-18 19:29 36.076438 -115.122567 271 2149ft 25kts
13-Apr-18 19:30 36.076321 -115.175068 275 3074ft 233kts
13-Apr-18 19:31 36.067652 -115.255648 242 5167ft 241kts
13-Apr-18 19:32 36.011207 -115.286513 199 6551ft 241kts
13-Apr-18 19:33 35.953091 -115.325637 227 8592ft 245kts
13-Apr-18 19:34 35.898731 -115.393085 241 9299ft 312kts
13-Apr-18 19:35 35.888840 -115.495457 275 11034ft 321kts
13-Apr-18 19:36 35.890520 -115.604557 276 11028ft 318kts
13-Apr-18 19:37 35.892245 -115.710391 276 12947ft 327kts
13-Apr-18 19:38 35.893894 -115.823639 277 16321ft 338kts
13-Apr-18 19:39 35.896169 -115.940117 285 19388ft 344kts
13-Apr-18 19:40 35.946787 -116.028561 321 22244ft 315kts
13-Apr-18 19:41 36.011810 -116.103455 321 23295ft 330kts
13-Apr-18 19:42 36.078048 -116.180043 321 23292ft 327kts
13-Apr-18 19:43 36.144169 -116.256520 321 25586ft 332kts
13-Apr-18 19:44 36.211267 -116.334243 321 27976ft 339kts
13-Apr-18 19:45 36.279553 -116.413526 320 30316ft 340kts
13-Apr-18 19:46 36.346860 -116.491824 320 32908ft 326kts
13-Apr-18 19:47 36.411244 -116.566919 319 34300ft 331kts
13-Apr-18 19:48 36.481097 -116.648456 319 34302ft 361kts
13-Apr-18 19:49 36.552813 -116.732832 319 34299ft 361kts
13-Apr-18 19:50 36.634617 -116.802435 329 34300ft 359kts
13-Apr-18 19:51 36.719681 -116.866970 329 34298ft 359kts
13-Apr-18 19:52 36.802686 -116.930100 328 34292ft 360kts
13-Apr-18 19:53 36.888183 -116.995300 328 34325ft 362kts
13-Apr-18 19:54 36.972599 -117.059847 327 34374ft 364kts
13-Apr-18 19:55 37.057771 -117.125128 327 34372ft 362kts
13-Apr-18 19:56 37.140979 -117.189072 326 34387ft 359kts
13-Apr-18 19:57 37.225797 -117.254442 326 34386ft 359kts
13-Apr-18 19:58 37.303368 -117.317093 316 34369ft 359kts
13-Apr-18 19:59 37.367604 -117.413303 311 34372ft 360kts
13-Apr-18 20:00 37.430310 -117.509509 311 34348ft 360kts
13-Apr-18 20:01 37.484468 -117.592553 312 34338ft 360kts
13-Apr-18 20:02 37.546580 -117.688036 311 34355ft 361kts
13-Apr-18 20:03 37.609800 -117.785571 311 34345ft 361kts
13-Apr-18 20:04 37.672909 -117.883152 311 34328ft 361kts
13-Apr-18 20:05 37.734666 -117.979902 309 34323ft 362kts
13-Apr-18 20:06 37.792530 -118.082019 308 34323ft 362kts
13-Apr-18 20:07 37.850910 -118.185257 308 34320ft 362kts
13-Apr-18 20:08 37.922091 -118.253214 305 34328ft 304kts
13-Apr-18 20:09 37.962217 -118.350051 308 34321ft 318kts
13-Apr-18 20:10 38.012860 -118.441640 308 33573ft 323kts
13-Apr-18 20:11 38.064497 -118.535154 309 32077ft 344kts
13-Apr-18 20:12 38.119569 -118.635053 308 30651ft 351kts
13-Apr-18 20:13 38.171937 -118.730976 308 29529ft 340kts
13-Apr-18 20:14 38.225467 -118.829379 308 27580ft 340kts
13-Apr-18 20:15 38.275409 -118.930554 298 27586ft 351kts
13-Apr-18 20:16 38.327666 -119.032170 310 27628ft 348kts
13-Apr-18 20:17 38.382569 -119.132632 310 27641ft 348kts
13-Apr-18 20:18 38.437311 -119.233068 310 27645ft 348kts
13-Apr-18 20:19 38.491397 -119.332572 310 27640ft 348kts
13-Apr-18 20:20 38.545998 -119.433309 310 27625ft 348kts
13-Apr-18 20:21 38.600340 -119.533849 310 27177ft 350kts
13-Apr-18 20:22 38.654486 -119.634396 310 26350ft 347kts
13-Apr-18 20:23 38.706022 -119.730571 310 25577ft 347kts
13-Apr-18 20:24 38.758622 -119.828937 310 24781ft 346kts
13-Apr-18 20:25 38.811319 -119.927893 310 23976ft 346kts
13-Apr-18 20:26 38.864282 -120.027548 310 23159ft 345kts
13-Apr-18 20:27 38.916344 -120.125674 309 22417ft 336kts
13-Apr-18 20:28 38.965376 -120.218470 307 22424ft 330kts
13-Apr-18 20:29 39.005189 -120.318776 288 22418ft 308kts
13-Apr-18 20:30 39.024378 -120.420947 286 22428ft 304kts
13-Apr-18 20:31 39.043464 -120.521853 286 22431ft 304kts
13-Apr-18 20:32 39.063594 -120.628038 285 21085ft 309kts
13-Apr-18 20:33 39.072296 -120.726896 255 19220ft 312kts
13-Apr-18 20:34 39.040763 -120.826863 253 17296ft 310kts
13-Apr-18 20:35 39.015568 -120.920269 255 16894ft 273kts
13-Apr-18 20:36 38.992203 -121.008544 255 15295ft 281kts
13-Apr-18 20:37 38.969310 -121.095729 255 13522ft 293kts
13-Apr-18 20:38 38.949033 -121.179641 255 11882ft 301kts
13-Apr-18 20:39 38.924858 -121.279646 254 9962ft 306kts
13-Apr-18 20:40 38.900701 -121.379009 254 8064ft 308kts
13-Apr-18 20:41 38.855107 -121.466772 231 6142ft 311kts
13-Apr-18 20:42 38.807290 -121.541286 233 5985ft 257kts
13-Apr-18 20:43 38.766661 -121.605980 235 6002ft 231kts
13-Apr-18 20:44 38.728921 -121.671118 235 5912ft 236kts
13-Apr-18 20:45 38.678435 -121.720704 195 4327ft 243kts
13-Apr-18 20:46 38.614689 -121.711248 152 2688ft 243kts
13-Apr-18 20:47 38.571086 -121.656875 108 1987ft 202kts
13-Apr-18 20:48 38.577526 -121.594127 32 1979ft 188kts
13-Apr-18 20:49 38.624536 -121.601182 354 1285ft 179kts
13-Apr-18 20:50 38.672559 -121.601627 359 357ft 172kts
13-Apr-18 20:51 38.702587 -121.601157 0 31ft 31kts
13-Apr-18 20:52 38.707196 -121.599539 90 31ft 6kts
13-Apr-18 20:53 38.707196 -121.599517 90 31ft 0kts

Navigation Log

Ident Type
Flight plan parsing failed, navigation log unavailable